Cap Maleas — P3ZA9 — position and weather

sailwx.info

Track history (hours):
 
Tides and Currents Weather Stations Pressure Air Temp Water Temp Dewpoint Dewpoint Depression Visibility Wind Speed Wind Dir Waves Ship Positions

Cap Maleas

Last reported at 2018-Feb-10 22:49 UTC. Time now 2018-Feb-20 19:33 UTC.
Position N 08°30' W 013°13'.
Warning: this ship's position is 9 days out of date.

Length 176 m; draft 9.2 m.

Type: Cargo ship. MMSI: 209309000.

Date/timePositionNaut miles runAvg speedWind from/ knotsBaromVisibWave heightAir tempDewpointWater temp
2018-Feb-10 22:49N 08°30' W 013°13'0 0.0
2018-Feb-10 17:31N 08°30' W 013°13'0 0.0
2018-Feb-10 17:19N 08°30' W 013°13'0 0.0
2018-Feb-10 16:58N 08°30' W 013°13'0 0.0
2018-Feb-10 16:25N 08°30' W 013°13'0 0.0
2018-Feb-10 15:58N 08°30' W 013°13'0 0.0
2018-Feb-10 10:07N 08°30' W 013°13'0 0.0
2018-Feb-10 09:58N 08°30' W 013°13'0 0.1
2018-Feb-10 09:30N 08°30' W 013°13'0 1.0
2018-Feb-10 08:59N 08°30' W 013°13'1 0.5
2018-Feb-10 06:53N 08°30' W 013°14'5 4.9
2018-Feb-10 05:47N 08°30' W 013°20'3 6.1
2018-Feb-10 05:15N 08°30' W 013°23'2 6.1
2018-Feb-10 04:57N 08°30' W 013°25'4 6.2
2018-Feb-10 04:19N 08°30' W 013°29'2 6.3
2018-Feb-10 03:58N 08°30' W 013°31'17 5.8
2018-Feb-10 00:59N 08°40' W 013°46'3 6.3
2018-Feb-10 00:30N 08°43' W 013°47'48 5.7
2018-Feb-09 16:00N 09°31' W 013°43'0 0.0
2018-Feb-09 04:00N 09°30' W 013°44'19 9.4
2018-Feb-09 02:00N 09°16' W 013°56'917.2
2018-Feb-09 01:30N 09°17' W 014°05'917.5
2018-Feb-09 01:00N 09°18' W 014°14'2617.5
2018-Feb-08 23:30N 09°21' W 014°40'917.5
2018-Feb-08 23:00N 09°22' W 014°49'917.5
2018-Feb-08 22:30N 09°23' W 014°58'2617.2
2018-Feb-08 21:00N 09°26' W 015°24'917.3
2018-Feb-08 20:30N 09°28' W 015°32'1717.4
2018-Feb-08 19:30N 09°37' W 015°47'917.7
2018-Feb-08 19:00N 09°42' W 015°55'  
2018-Feb-04 02:33N 35°58' W 005°36'112.8
2018-Feb-04 02:31N 35°58' W 005°35'612.6
2018-Feb-04 02:00N 36°00' W 005°28'611.8
2018-Feb-04 01:27N 36°06' W 005°24'4 0.2
2018-Feb-03 08:36N 36°04' W 005°19'2 7.5
2018-Feb-03 08:23N 36°04' W 005°17'2 1.1
2018-Feb-03 06:30N 36°05' W 005°15'1 2.9
2018-Feb-03 06:00N 36°04' W 005°14'0 0.9
2018-Feb-03 05:30N 36°04' W 005°13'1 1.9
2018-Feb-03 05:00N 36°04' W 005°14'2 1.9
2018-Feb-03 03:59N 36°05' W 005°16'1 1.5
2018-Feb-03 03:30N 36°05' W 005°17'2 1.2
2018-Feb-03 01:59N 36°04' W 005°18'1 1.6
2018-Feb-03 01:30N 36°03' W 005°19'3 5.1
2018-Feb-03 00:59N 36°03' W 005°22'712.2
2018-Feb-03 00:26N 35°57' W 005°27'  
Track history (hours):
 
Tides and Currents Weather Stations Pressure Air Temp Water Temp Dewpoint Dewpoint Depression Visibility Wind Speed Wind Dir Waves Ship Positions

Cap Maleas

Last reported at 2018-Feb-10 22:49 UTC. Time now 2018-Feb-20 19:33 UTC.
Position N 08°30' W 013°13'.
Warning: this ship's position is 9 days out of date.

Length 176 m; draft 9.2 m.

Type: Cargo ship. MMSI: 209309000.

Date/timePositionNaut miles runAvg speedWind from/ knotsBaromVisibWave heightAir tempDewpointWater temp
2018-Feb-10 22:49N 08°30' W 013°13'0 0.0
2018-Feb-10 17:31N 08°30' W 013°13'0 0.0
2018-Feb-10 17:19N 08°30' W 013°13'0 0.0
2018-Feb-10 16:58N 08°30' W 013°13'0 0.0
2018-Feb-10 16:25N 08°30' W 013°13'0 0.0
2018-Feb-10 15:58N 08°30' W 013°13'0 0.0
2018-Feb-10 10:07N 08°30' W 013°13'0 0.0
2018-Feb-10 09:58N 08°30' W 013°13'0 0.1
2018-Feb-10 09:30N 08°30' W 013°13'0 1.0
2018-Feb-10 08:59N 08°30' W 013°13'1 0.5
2018-Feb-10 06:53N 08°30' W 013°14'5 4.9
2018-Feb-10 05:47N 08°30' W 013°20'3 6.1
2018-Feb-10 05:15N 08°30' W 013°23'2 6.1
2018-Feb-10 04:57N 08°30' W 013°25'4 6.2
2018-Feb-10 04:19N 08°30' W 013°29'2 6.3
2018-Feb-10 03:58N 08°30' W 013°31'17 5.8
2018-Feb-10 00:59N 08°40' W 013°46'3 6.3
2018-Feb-10 00:30N 08°43' W 013°47'48 5.7
2018-Feb-09 16:00N 09°31' W 013°43'0 0.0
2018-Feb-09 04:00N 09°30' W 013°44'19 9.4
2018-Feb-09 02:00N 09°16' W 013°56'917.2
2018-Feb-09 01:30N 09°17' W 014°05'917.5
2018-Feb-09 01:00N 09°18' W 014°14'2617.5
2018-Feb-08 23:30N 09°21' W 014°40'917.5
2018-Feb-08 23:00N 09°22' W 014°49'917.5
2018-Feb-08 22:30N 09°23' W 014°58'2617.2
2018-Feb-08 21:00N 09°26' W 015°24'917.3
2018-Feb-08 20:30N 09°28' W 015°32'1717.4
2018-Feb-08 19:30N 09°37' W 015°47'917.7
2018-Feb-08 19:00N 09°42' W 015°55'  
2018-Feb-04 02:33N 35°58' W 005°36'112.8
2018-Feb-04 02:31N 35°58' W 005°35'612.6
2018-Feb-04 02:00N 36°00' W 005°28'611.8
2018-Feb-04 01:27N 36°06' W 005°24'4 0.2
2018-Feb-03 08:36N 36°04' W 005°19'2 7.5
2018-Feb-03 08:23N 36°04' W 005°17'2 1.1
2018-Feb-03 06:30N 36°05' W 005°15'1 2.9
2018-Feb-03 06:00N 36°04' W 005°14'0 0.9
2018-Feb-03 05:30N 36°04' W 005°13'1 1.9
2018-Feb-03 05:00N 36°04' W 005°14'2 1.9
2018-Feb-03 03:59N 36°05' W 005°16'1 1.5
2018-Feb-03 03:30N 36°05' W 005°17'2 1.2
2018-Feb-03 01:59N 36°04' W 005°18'1 1.6
2018-Feb-03 01:30N 36°03' W 005°19'3 5.1
2018-Feb-03 00:59N 36°03' W 005°22'712.2
2018-Feb-03 00:26N 35°57' W 005°27'  

Dump ship's entire track history